DIMEL EDDH-EDDH
Flight info
| Callsign | DIMEL |
|---|---|
| Flight time | 0h 4m |
| Altitude | |
| Route | |
| Aircraft | BA9L |
Departure
| Time | 2026-04-24 15:33 |
|---|---|
| Airport | Hamburg Helmut Schmidt Airport (EDDH) |
Arrival
| Time | 2026-04-24 15:37 |
|---|---|
| Airport | Hamburg Helmut Schmidt Airport (EDDH) |
| Time | Latitude | Longitude | Altitude | Speed | Heading |
|---|---|---|---|---|---|
| 2026-04-24 15:19 | 53.62631 | 9.98895 | 42 ft | 0 kts | 242° |
| 2026-04-24 15:21 | 53.62631 | 9.98891 | 42 ft | 1 kts | 280° |
| 2026-04-24 15:22 | 53.62635 | 9.98886 | 42 ft | 1 kts | 7° |
| 2026-04-24 15:25 | 53.62636 | 9.98886 | 42 ft | 1 kts | 7° |
| 2026-04-24 15:25 | 53.62680 | 9.98892 | 42 ft | 3 kts | 331° |
| 2026-04-24 15:26 | 53.62883 | 9.98940 | 42 ft | 20 kts | 50° |
| 2026-04-24 15:27 | 53.63086 | 9.99196 | 42 ft | 0 kts | 292° |
| 2026-04-24 15:33 | 53.62539 | 9.97731 | 106 ft | 114 kts | 235° |
| 2026-04-24 15:33 | 53.60468 | 9.94357 | 1242 ft | 173 kts | 202° |
| 2026-04-24 15:34 | 53.58122 | 9.95591 | 1447 ft | 198 kts | 121° |
| 2026-04-24 15:35 | 53.59256 | 10.01265 | 1311 ft | 178 kts | 47° |
| 2026-04-24 15:35 | 53.60716 | 10.04545 | 1352 ft | 166 kts | 36° |
| 2026-04-24 15:35 | 53.61584 | 10.05679 | 1413 ft | 151 kts | 14° |
| 2026-04-24 15:36 | 53.62544 | 10.05820 | 1405 ft | 133 kts | 330° |
| 2026-04-24 15:36 | 53.63786 | 10.03734 | 1120 ft | 131 kts | 298° |
| 2026-04-24 15:36 | 53.64132 | 10.02373 | 906 ft | 121 kts | 278° |
| 2026-04-24 15:37 | 53.64033 | 10.00982 | 432 ft | 124 kts | 257° |
| 2026-04-24 15:37 | 53.63518 | 9.99803 | 63 ft | 119 kts | 235° |
| 2026-04-24 15:37 | 53.63181 | 9.99134 | 43 ft | 104 kts | 234° |
| 2026-04-24 15:37 | 53.62808 | 9.98489 | 39 ft | 34 kts | 200° |
| 2026-04-24 15:38 | 53.62696 | 9.98541 | 42 ft | 16 kts | 84° |
| 2026-04-24 15:38 | 53.62766 | 9.98699 | 42 ft | 18 kts | 55° |
| 2026-04-24 15:38 | 53.62781 | 9.98808 | 42 ft | 7 kts | 160° |
| 2026-04-24 15:38 | 53.62728 | 9.98852 | 42 ft | 11 kts | 151° |
| 2026-04-24 15:39 | 53.62659 | 9.98911 | 42 ft | 9 kts | 158° |
| 2026-04-24 15:39 | 53.62635 | 9.98907 | 42 ft | 1 kts | 236° |
| 2026-04-24 15:39 | 53.62631 | 9.98894 | 42 ft | 3 kts | 241° |
| 2026-04-24 15:39 | 53.62631 | 9.98893 | 42 ft | 0 kts | 242° |